Time;durP1;ratioP1;P1;durP2;ratioP2;P2;SDS_P1;SDS_P2;PMS_P1;PMS_P2;Temp;Humidity;BMP_temperature;BMP_pressure;BME280_temperature;BME280_humidity;BME280_pressure;Samples;Min_cycle;Max_cycle;Signal;HPM_P1;HPM_P2
2022/08/26 00:00:00;;;;;;;11.63;9.40;;;25.10;65.70;;;;;;5072765;28;20089;-66
2022/08/26 00:02:26;;;;;;;12.60;9.00;;;25.00;65.80;;;;;;5076660;28;20020;-66
2022/08/26 00:04:52;;;;;;;13.32;8.70;;;25.00;65.80;;;;;;5079140;28;20036;-66
2022/08/26 00:07:17;;;;;;;14.02;8.27;;;25.10;65.80;;;;;;5096794;28;20024;-65
2022/08/26 00:09:43;;;;;;;13.23;8.52;;;25.10;65.80;;;;;;5076574;28;20047;-65
2022/08/26 00:12:09;;;;;;;12.13;8.00;;;25.00;65.80;;;;;;5076461;28;20055;-65
2022/08/26 00:14:34;;;;;;;12.10;7.63;;;25.00;65.90;;;;;;5076576;28;20028;-65
2022/08/26 00:17:00;;;;;;;12.65;7.72;;;25.00;65.90;;;;;;5095870;28;20181;-65
2022/08/26 00:19:25;;;;;;;14.50;8.00;;;25.00;66.00;;;;;;5077221;28;20012;-65
2022/08/26 00:21:51;;;;;;;15.25;7.90;;;25.00;66.10;;;;;;5089333;28;20408;-65
2022/08/26 00:24:19;;;;;;;12.02;6.75;;;25.00;66.10;;;;;;5073213;28;20028;-65
2022/08/26 00:26:45;;;;;;;11.20;7.10;;;25.00;66.20;;;;;;5077831;28;20111;-65
2022/08/26 00:29:11;;;;;;;11.20;7.13;;;24.90;66.10;;;;;;5095819;28;20035;-65
2022/08/26 00:31:37;;;;;;;11.85;6.70;;;24.90;66.20;;;;;;5079668;28;20024;-65
2022/08/26 00:34:02;;;;;;;12.40;6.47;;;24.90;66.30;;;;;;5078123;28;20028;-65
2022/08/26 00:36:28;;;;;;;12.43;6.32;;;24.90;66.30;;;;;;5086607;28;20032;-65
2022/08/26 00:38:54;;;;;;;9.55;6.28;;;24.90;66.30;;;;;;5096447;28;20122;-65
2022/08/26 00:41:19;;;;;;;10.52;5.72;;;24.90;66.40;;;;;;5095766;28;20032;-66
2022/08/26 00:43:45;;;;;;;9.23;5.80;;;24.90;66.40;;;;;;5078986;28;20032;-65
2022/08/26 00:46:20;;;;;;;11.60;5.68;;;24.90;66.50;;;;;;5069029;28;20031;-65
2022/08/26 00:48:48;;;;;;;11.07;5.85;;;24.90;66.50;;;;;;5096504;28;20036;-66
2022/08/26 00:51:20;;;;;;;13.13;5.80;;;24.80;66.50;;;;;;5095467;28;20058;-65
2022/08/26 00:53:56;;;;;;;9.13;5.43;;;24.80;66.50;;;;;;5078453;28;20035;-66
2022/08/26 00:56:25;;;;;;;8.07;4.53;;;24.80;66.50;;;;;;5075796;28;20028;-65
2022/08/26 00:58:54;;;;;;;11.05;5.20;;;24.80;66.50;;;;;;5083403;28;20365;-65
2022/08/26 01:01:20;;;;;;;7.55;4.32;;;24.80;66.50;;;;;;5095413;28;20103;-65
2022/08/26 01:03:45;;;;;;;8.57;4.60;;;24.70;66.50;;;;;;5073802;28;20150;-65
2022/08/26 01:06:13;;;;;;;10.75;4.22;;;24.70;66.60;;;;;;5092928;28;20337;-66
2022/08/26 01:08:40;;;;;;;11.35;4.82;;;24.70;66.70;;;;;;5078846;28;20066;-65
2022/08/26 01:11:06;;;;;;;10.68;4.15;;;24.70;66.60;;;;;;5095137;28;20028;-65
2022/08/26 01:13:35;;;;;;;9.88;4.32;;;24.70;66.50;;;;;;5077416;28;20044;-65
2022/08/26 01:16:04;;;;;;;10.60;4.47;;;24.70;66.60;;;;;;5091296;28;20048;-65
2022/08/26 01:18:30;;;;;;;10.10;4.00;;;24.70;66.70;;;;;;5085563;28;20031;-65
2022/08/26 01:21:11;;;;;;;8.73;4.00;;;24.60;66.70;;;;;;5073568;28;20024;-65
2022/08/26 01:23:43;;;;;;;8.00;3.85;;;24.70;66.80;;;;;;5096536;28;20546;-65
2022/08/26 01:26:14;;;;;;;8.80;3.78;;;24.70;66.70;;;;;;5091615;28;20039;-65
2022/08/26 01:28:40;;;;;;;9.70;3.65;;;24.70;66.70;;;;;;5049915;28;20024;-65
2022/08/26 01:31:11;;;;;;;8.15;3.78;;;24.70;66.70;;;;;;5089622;28;20035;-65
2022/08/26 01:34:02;;;;;;;7.22;3.30;;;24.70;66.70;;;;;;5061025;28;20471;-65
2022/08/26 01:36:28;;;;;;;7.85;3.85;;;24.70;66.70;;;;;;5090126;28;20020;-65
2022/08/26 01:38:54;;;;;;;6.07;3.40;;;24.60;66.60;;;;;;5094590;28;20029;-65
2022/08/26 01:41:21;;;;;;;6.90;3.03;;;24.60;66.70;;;;;;5093210;28;20028;-65
2022/08/26 01:43:50;;;;;;;7.65;3.10;;;24.60;66.70;;;;;;5096192;28;20500;-65
2022/08/26 01:46:17;;;;;;;10.05;3.65;;;24.60;66.80;;;;;;5092956;28;20333;-65
2022/08/26 01:48:44;;;;;;;7.75;2.90;;;24.50;66.80;;;;;;5094861;28;20032;-65
2022/08/26 01:51:12;;;;;;;8.45;3.28;;;24.50;66.80;;;;;;5093867;28;20032;-65
2022/08/26 01:53:39;;;;;;;11.77;3.67;;;24.50;66.80;;;;;;5077130;28;20447;-65
2022/08/26 01:56:08;;;;;;;8.27;3.40;;;24.50;66.90;;;;;;5090039;28;20016;-68
2022/08/26 01:58:41;;;;;;;8.48;2.95;;;24.50;67.00;;;;;;5094613;28;20050;-65
2022/08/26 02:01:07;;;;;;;8.73;3.30;;;24.50;67.00;;;;;;5077155;28;20060;-65
2022/08/26 02:03:37;;;;;;;7.43;2.97;;;24.40;67.00;;;;;;5089794;28;20101;-65
2022/08/26 02:06:07;;;;;;;7.18;2.88;;;24.40;67.00;;;;;;5092099;28;20028;-65
2022/08/26 02:08:48;;;;;;;7.32;2.97;;;24.40;67.00;;;;;;5077398;28;20031;-65
2022/08/26 02:11:14;;;;;;;8.90;3.00;;;24.40;67.10;;;;;;5075683;28;20035;-65
2022/08/26 02:13:47;;;;;;;7.18;2.95;;;24.40;67.00;;;;;;5086374;28;20443;-65
2022/08/26 02:16:17;;;;;;;6.15;3.33;;;24.40;66.90;;;;;;5092206;28;20021;-66
2022/08/26 02:18:43;;;;;;;7.15;3.13;;;24.40;66.90;;;;;;5093882;28;20112;-65
2022/08/26 02:21:10;;;;;;;8.77;2.92;;;24.40;66.90;;;;;;5094150;28;20111;-65
2022/08/26 02:23:36;;;;;;;7.22;2.90;;;24.40;66.90;;;;;;5093886;28;20431;-65
2022/08/26 02:26:10;;;;;;;8.23;2.70;;;24.40;66.90;;;;;;5093100;28;20107;-65
2022/08/26 02:29:05;;;;;;;5.78;2.65;;;24.40;66.90;;;;;;5077328;28;20034;-65
2022/08/26 02:31:31;;;;;;;6.68;2.70;;;24.40;66.90;;;;;;5059542;28;20112;-65
2022/08/26 02:34:21;;;;;;;7.25;2.58;;;24.40;67.00;;;;;;5074289;28;20036;-65
2022/08/26 02:36:48;;;;;;;6.40;2.53;;;24.40;66.90;;;;;;5090124;28;20028;-65
2022/08/26 02:39:15;;;;;;;4.68;2.10;;;24.40;66.90;;;;;;5076240;28;20286;-65
2022/08/26 02:41:41;;;;;;;6.80;2.40;;;24.40;66.90;;;;;;5091916;28;20016;-65
2022/08/26 02:44:08;;;;;;;9.55;2.72;;;24.30;67.00;;;;;;5089392;28;20111;-66
2022/08/26 02:46:34;;;;;;;7.28;2.70;;;24.30;67.00;;;;;;5090097;28;20039;-66
2022/08/26 02:49:00;;;;;;;7.00;2.33;;;24.30;67.00;;;;;;5094566;28;20514;-65
2022/08/26 02:51:26;;;;;;;6.13;2.63;;;24.40;67.10;;;;;;5093612;28;21213;-65
2022/08/26 02:53:52;;;;;;;6.22;2.50;;;24.30;67.20;;;;;;5085350;28;20040;-65
2022/08/26 02:56:17;;;;;;;9.13;2.88;;;24.30;67.20;;;;;;5058682;28;20410;-65
2022/08/26 02:58:43;;;;;;;9.32;2.47;;;24.30;67.20;;;;;;5089893;28;20024;-65
2022/08/26 03:01:22;;;;;;;5.70;2.65;;;24.30;67.30;;;;;;5092436;28;20035;-65
2022/08/26 03:03:48;;;;;;;6.45;2.42;;;24.30;67.30;;;;;;5086564;28;20218;-65
2022/08/26 03:06:14;;;;;;;8.30;2.85;;;24.20;67.30;;;;;;5057427;28;20131;-65
2022/08/26 03:08:40;;;;;;;7.72;2.63;;;24.20;67.40;;;;;;5093437;28;20023;-65
2022/08/26 03:11:05;;;;;;;5.70;2.70;;;24.20;67.50;;;;;;5094971;28;20035;-65
2022/08/26 03:13:31;;;;;;;5.93;2.30;;;24.20;67.50;;;;;;5085411;28;20047;-65
2022/08/26 03:15:58;;;;;;;7.97;2.20;;;24.20;67.60;;;;;;5073055;28;20032;-65
2022/08/26 03:18:24;;;;;;;6.30;2.35;;;24.20;67.60;;;;;;5066944;28;20449;-65
2022/08/26 03:20:50;;;;;;;7.60;2.58;;;24.20;67.60;;;;;;5056419;28;20021;-65
2022/08/26 03:23:15;;;;;;;7.15;2.30;;;24.20;67.60;;;;;;5056851;28;20040;-66
2022/08/26 03:25:41;;;;;;;9.00;2.67;;;24.20;67.60;;;;;;5075360;28;20416;-65
2022/08/26 03:28:07;;;;;;;7.50;2.58;;;24.20;67.60;;;;;;5092206;28;20020;-65
2022/08/26 03:30:39;;;;;;;6.63;2.60;;;24.20;67.70;;;;;;5091960;28;20073;-65
2022/08/26 03:33:06;;;;;;;7.47;2.15;;;24.20;67.70;;;;;;5091520;28;20084;-65
2022/08/26 03:35:32;;;;;;;6.93;2.60;;;24.20;67.70;;;;;;5053518;28;20051;-65
2022/08/26 03:37:59;;;;;;;6.00;2.20;;;24.20;67.70;;;;;;5080380;28;20342;-65
2022/08/26 03:40:25;;;;;;;5.82;2.28;;;24.20;68.40;;;;;;5093120;28;20058;-65
2022/08/26 03:42:51;;;;;;;6.20;2.03;;;24.20;67.60;;;;;;5091362;28;20028;-65
2022/08/26 03:45:19;;;;;;;5.90;1.85;;;24.20;67.60;;;;;;5092905;28;20035;-65
2022/08/26 03:47:46;;;;;;;7.40;2.35;;;24.20;67.70;;;;;;5090278;28;20020;-65
2022/08/26 03:50:13;;;;;;;5.93;1.92;;;24.20;67.80;;;;;;5092220;28;20039;-65
2022/08/26 03:52:39;;;;;;;5.28;1.83;;;24.20;67.70;;;;;;5078222;28;20349;-65
2022/08/26 03:55:06;;;;;;;5.35;1.80;;;24.20;67.80;;;;;;5082654;28;20037;-65
2022/08/26 03:57:32;;;;;;;5.72;2.03;;;24.20;67.80;;;;;;5081818;28;20456;-65
2022/08/26 03:59:58;;;;;;;5.93;1.83;;;24.20;67.80;;;;;;5069094;28;20101;-65
2022/08/26 04:02:24;;;;;;;6.22;1.67;;;24.20;67.70;;;;;;5080210;28;20040;-65
2022/08/26 04:04:49;;;;;;;3.90;1.63;;;24.20;67.60;;;;;;5081742;28;20032;-65
2022/08/26 04:07:15;;;;;;;7.13;2.20;;;24.20;67.60;;;;;;5072699;28;20036;-65
2022/08/26 04:09:41;;;;;;;5.50;1.92;;;24.20;67.70;;;;;;5086861;28;20376;-65
2022/08/26 04:12:08;;;;;;;6.10;1.70;;;24.10;67.70;;;;;;5085441;28;20051;-65
2022/08/26 04:14:36;;;;;;;5.50;1.90;;;24.10;67.80;;;;;;5083703;28;20016;-65
2022/08/26 04:17:03;;;;;;;6.32;1.75;;;24.10;67.80;;;;;;5086551;28;20071;-65
2022/08/26 04:19:31;;;;;;;6.32;1.70;;;24.10;67.70;;;;;;5073940;28;20131;-65
2022/08/26 04:21:57;;;;;;;6.05;1.80;;;24.10;67.70;;;;;;5067595;28;20020;-65
2022/08/26 04:24:25;;;;;;;6.47;1.90;;;24.10;67.60;;;;;;5090270;28;20036;-65
2022/08/26 04:26:52;;;;;;;4.45;1.67;;;24.20;67.60;;;;;;5056039;28;20028;-66
2022/08/26 04:29:23;;;;;;;6.40;2.10;;;24.20;67.50;;;;;;5054101;28;20467;-65
2022/08/26 04:31:49;;;;;;;5.50;1.40;;;24.20;67.60;;;;;;5071079;28;20036;-65
2022/08/26 04:34:15;;;;;;;5.05;1.52;;;24.10;67.50;;;;;;5067471;28;20106;-66
2022/08/26 04:36:41;;;;;;;7.03;1.92;;;24.20;67.50;;;;;;5076234;28;20035;-65
2022/08/26 04:39:10;;;;;;;5.63;1.80;;;24.10;67.40;;;;;;5085122;28;20024;-65
2022/08/26 04:41:37;;;;;;;4.47;1.70;;;24.10;67.40;;;;;;5060739;28;20024;-66
2022/08/26 04:44:05;;;;;;;4.00;1.52;;;24.10;67.40;;;;;;5076916;28;20036;-66
2022/08/26 04:46:31;;;;;;;5.13;1.80;;;24.10;67.30;;;;;;5083416;28;20028;-65
2022/08/26 04:48:57;;;;;;;5.60;1.48;;;24.10;67.30;;;;;;5092001;28;20031;-65
2022/08/26 04:51:26;;;;;;;6.63;2.05;;;24.10;67.30;;;;;;5096196;28;20395;-65
2022/08/26 04:53:55;;;;;;;7.03;1.70;;;24.10;67.20;;;;;;5079131;28;20047;-65
2022/08/26 04:56:21;;;;;;;5.57;1.80;;;24.10;67.20;;;;;;5079151;28;20154;-65
2022/08/26 04:58:48;;;;;;;5.47;1.58;;;24.10;67.10;;;;;;5097145;28;20334;-66
2022/08/26 05:01:14;;;;;;;5.50;1.75;;;24.10;67.10;;;;;;5078732;28;20031;-65
2022/08/26 05:03:39;;;;;;;4.63;1.50;;;24.10;67.10;;;;;;5070162;28;20028;-65
2022/08/26 05:06:05;;;;;;;4.72;1.90;;;24.10;67.10;;;;;;5062460;28;20115;-65
2022/08/26 05:08:31;;;;;;;5.70;1.63;;;24.10;67.10;;;;;;5096849;28;20119;-65
2022/08/26 05:10:57;;;;;;;4.03;1.50;;;24.10;67.00;;;;;;5094947;28;20428;-65
2022/08/26 05:13:26;;;;;;;4.82;1.70;;;24.10;67.10;;;;;;5077717;28;20044;-65
2022/08/26 05:15:52;;;;;;;6.60;2.00;;;24.00;67.10;;;;;;5096617;28;20040;-65
2022/08/26 05:18:20;;;;;;;4.57;1.65;;;24.10;67.10;;;;;;5095073;28;20399;-65
2022/08/26 05:20:52;;;;;;;4.60;1.77;;;24.00;67.10;;;;;;5077950;28;20043;-65
2022/08/26 05:23:18;;;;;;;7.70;1.77;;;24.00;67.20;;;;;;5096618;28;20099;-65
2022/08/26 05:25:46;;;;;;;5.95;1.20;;;24.00;67.20;;;;;;5096261;28;20301;-65
2022/08/26 05:28:14;;;;;;;4.35;1.30;;;24.00;67.20;;;;;;5083780;28;20445;-65
2022/08/26 05:30:40;;;;;;;3.97;1.58;;;23.90;67.10;;;;;;5078544;28;20437;-64
2022/08/26 05:33:08;;;;;;;5.60;1.38;;;24.00;67.10;;;;;;5067552;28;20028;-65
2022/08/26 05:35:34;;;;;;;7.78;1.92;;;24.00;67.10;;;;;;5056359;28;20368;-65
2022/08/26 05:38:02;;;;;;;8.45;2.25;;;24.00;67.10;;;;;;5091145;28;20460;-65
2022/08/26 05:40:32;;;;;;;6.47;1.50;;;24.00;67.10;;;;;;5078461;28;20032;-65
2022/08/26 05:42:59;;;;;;;5.65;1.40;;;24.10;67.10;;;;;;5075020;28;20024;-66
2022/08/26 05:45:25;;;;;;;6.78;1.30;;;24.10;67.10;;;;;;5084774;28;20365;-66
2022/08/26 05:47:51;;;;;;;5.72;1.50;;;24.10;67.10;;;;;;5089368;28;20111;-66
2022/08/26 05:50:20;;;;;;;4.88;1.50;;;24.10;67.00;;;;;;5089172;28;20089;-66
2022/08/26 05:52:49;;;;;;;5.88;1.60;;;24.10;67.00;;;;;;5091103;28;20039;-65
2022/08/26 05:55:15;;;;;;;6.18;1.40;;;24.10;67.00;;;;;;5096114;28;20333;-66
2022/08/26 05:57:41;;;;;;;5.40;1.40;;;24.10;67.00;;;;;;5065477;28;20025;-67
2022/08/26 06:00:08;;;;;;;5.10;1.42;;;24.10;67.00;;;;;;5085344;28;20031;-66
2022/08/26 06:02:38;;;;;;;4.03;1.45;;;24.10;67.00;;;;;;5088053;28;20167;-68
2022/08/26 06:05:05;;;;;;;3.63;1.40;;;24.20;67.10;;;;;;5094643;28;20035;-67
2022/08/26 06:10:16;;;;;;;4.20;1.17;;;24.20;66.90;;;;;;5090087;28;20040;-66
2022/08/26 06:12:41;;;;;;;3.85;1.30;;;24.30;66.90;;;;;;5047165;28;20054;-66
2022/08/26 06:15:08;;;;;;;4.60;1.80;;;24.30;66.80;;;;;;5064626;28;20047;-66
2022/08/26 06:17:33;;;;;;;6.55;1.60;;;24.30;66.70;;;;;;5085717;28;20115;-66
2022/08/26 06:19:59;;;;;;;6.45;1.73;;;24.30;66.70;;;;;;5088338;28;20386;-66
2022/08/26 06:28:01;;;;;;;5.68;1.50;;;24.30;66.70;;;;;;5087572;28;20346;-66
2022/08/26 06:30:26;;;;;;;4.55;1.30;;;24.30;66.70;;;;;;5067816;28;20035;-65
2022/08/26 06:32:52;;;;;;;6.35;1.45;;;24.30;66.50;;;;;;5093937;28;20074;-65
2022/08/26 06:35:18;;;;;;;5.15;1.42;;;24.40;66.60;;;;;;5078498;28;20032;-65
2022/08/26 06:37:43;;;;;;;5.78;1.58;;;24.40;66.50;;;;;;5078311;28;20035;-65
2022/08/26 06:40:09;;;;;;;7.90;1.60;;;24.40;66.30;;;;;;5072885;28;20735;-65
2022/08/26 06:42:36;;;;;;;5.25;1.45;;;24.40;66.20;;;;;;5074628;28;20019;-64
2022/08/26 06:45:05;;;;;;;3.47;1.17;;;24.40;66.10;;;;;;5070358;28;20032;-65
2022/08/26 06:47:31;;;;;;;5.00;1.45;;;24.50;66.00;;;;;;5064720;28;20036;-64
2022/08/26 06:49:57;;;;;;;5.07;1.75;;;24.50;65.90;;;;;;5090232;28;20027;-65
2022/08/26 06:52:22;;;;;;;6.35;1.90;;;24.50;65.80;;;;;;5070329;28;20120;-65
2022/08/26 06:54:49;;;;;;;3.95;1.23;;;24.50;65.70;;;;;;5085947;28;20117;-65
2022/08/26 06:57:15;;;;;;;5.93;1.35;;;24.50;65.40;;;;;;5085755;28;20031;-65
2022/08/26 06:59:40;;;;;;;6.40;1.55;;;24.60;65.30;;;;;;5090749;28;20419;-66
2022/08/26 07:02:06;;;;;;;6.03;1.40;;;24.60;65.20;;;;;;5067248;28;20024;-65
2022/08/26 07:04:33;;;;;;;5.78;1.48;;;24.70;65.10;;;;;;5069667;28;20115;-65
2022/08/26 07:06:59;;;;;;;6.68;1.50;;;24.70;64.90;;;;;;5092756;28;20039;-65
2022/08/26 07:09:32;;;;;;;4.68;1.45;;;24.70;64.70;;;;;;5065366;28;20032;-64
2022/08/26 07:11:58;;;;;;;5.45;1.35;;;24.70;64.60;;;;;;5071970;28;20048;-63
2022/08/26 07:14:24;;;;;;;6.57;1.50;;;24.70;64.40;;;;;;5072133;28;20085;-64
2022/08/26 07:16:50;;;;;;;5.25;1.52;;;24.70;64.30;;;;;;5075890;28;20016;-64
2022/08/26 07:19:18;;;;;;;7.68;1.63;;;24.70;64.10;;;;;;5068838;28;20561;-63
2022/08/26 07:21:43;;;;;;;6.60;1.50;;;24.80;64.00;;;;;;5094260;28;20031;-63
2022/08/26 07:24:09;;;;;;;5.30;1.48;;;24.80;63.90;;;;;;5076423;28;20032;-64
2022/08/26 07:26:35;;;;;;;4.70;1.70;;;24.80;63.70;;;;;;5055413;28;20357;-64
2022/08/26 07:29:02;;;;;;;4.47;1.27;;;24.90;63.60;;;;;;5089460;28;20031;-64
2022/08/26 07:31:31;;;;;;;5.03;1.30;;;24.90;63.60;;;;;;5076574;28;20040;-64
2022/08/26 07:33:57;;;;;;;4.72;1.30;;;25.00;63.40;;;;;;5076372;28;20093;-64
2022/08/26 07:36:23;;;;;;;4.53;1.42;;;25.00;63.00;;;;;;5092377;28;20441;-63
2022/08/26 07:38:50;;;;;;;5.22;1.45;;;25.00;62.90;;;;;;5088940;28;20031;-64
2022/08/26 07:41:18;;;;;;;6.15;1.35;;;25.00;62.80;;;;;;5086640;28;20024;-64
2022/08/26 07:43:44;;;;;;;4.38;1.30;;;25.00;62.80;;;;;;5049518;28;20127;-64
2022/08/26 07:46:17;;;;;;;4.32;1.13;;;24.90;62.70;;;;;;5085665;28;20036;-64
2022/08/26 07:48:43;;;;;;;4.82;1.33;;;25.00;62.80;;;;;;5076840;28;20045;-64
2022/08/26 07:51:09;;;;;;;6.55;1.15;;;25.00;62.80;;;;;;5072839;28;20066;-63
2022/08/26 07:53:35;;;;;;;4.57;1.48;;;25.00;62.60;;;;;;5088352;28;20422;-64
2022/08/26 07:56:01;;;;;;;5.63;1.27;;;25.10;62.30;;;;;;5069084;28;20032;-64
2022/08/26 07:58:28;;;;;;;6.53;1.58;;;25.20;62.10;;;;;;5070857;28;20073;-63
2022/08/26 08:00:54;;;;;;;4.05;1.30;;;25.40;61.90;;;;;;5069003;28;20475;-62
2022/08/26 08:03:19;;;;;;;5.40;1.58;;;25.50;61.50;;;;;;5072446;28;20051;-64
2022/08/26 08:05:45;;;;;;;6.30;1.63;;;25.60;61.40;;;;;;5084564;28;20449;-64
2022/08/26 08:08:11;;;;;;;4.88;1.30;;;25.60;61.20;;;;;;5093508;28;20028;-64
2022/08/26 08:10:38;;;;;;;4.85;1.50;;;25.60;61.20;;;;;;5072361;28;20067;-64
2022/08/26 08:13:06;;;;;;;4.60;1.33;;;25.50;61.10;;;;;;5088590;28;20421;-64
2022/08/26 08:15:33;;;;;;;5.22;1.40;;;25.50;61.30;;;;;;5071757;28;20032;-64
2022/08/26 08:17:59;;;;;;;5.35;1.05;;;25.40;61.20;;;;;;5088507;28;20024;-64
2022/08/26 08:20:26;;;;;;;4.40;1.40;;;25.40;61.20;;;;;;5093486;28;20028;-64
2022/08/26 08:22:53;;;;;;;4.45;1.33;;;25.40;61.20;;;;;;5070557;28;20135;-64
2022/08/26 08:25:19;;;;;;;7.30;1.42;;;25.40;61.30;;;;;;5083979;28;20063;-65
2022/08/26 08:27:47;;;;;;;4.15;1.20;;;25.30;61.20;;;;;;5094937;28;20023;-64
2022/08/26 08:30:15;;;;;;;5.63;1.65;;;25.30;61.40;;;;;;5077188;28;20031;-65
2022/08/26 08:32:44;;;;;;;4.63;1.30;;;25.20;61.40;;;;;;5079085;28;20449;-65
2022/08/26 08:35:12;;;;;;;5.60;1.45;;;25.20;61.50;;;;;;5095398;28;20031;-65
2022/08/26 08:37:39;;;;;;;7.38;1.80;;;25.20;61.60;;;;;;5096329;28;20472;-65
2022/08/26 08:40:09;;;;;;;6.13;1.35;;;25.20;61.70;;;;;;5066395;28;20063;-64
2022/08/26 08:42:47;;;;;;;6.65;1.42;;;25.20;61.70;;;;;;5073717;28;20024;-65
2022/08/26 08:45:32;;;;;;;5.68;1.58;;;25.20;61.80;;;;;;5089552;28;20088;-65
2022/08/26 08:48:21;;;;;;;8.52;1.92;;;25.20;62.00;;;;;;5073923;28;20043;-65
2022/08/26 08:50:49;;;;;;;4.55;1.42;;;25.10;62.20;;;;;;5076052;28;20424;-65
2022/08/26 08:53:28;;;;;;;5.43;1.45;;;25.00;62.50;;;;;;5096929;28;20036;-65
2022/08/26 08:56:22;;;;;;;7.95;1.73;;;25.00;62.90;;;;;;5097315;28;20034;-65
2022/08/26 08:59:13;;;;;;;8.35;1.40;;;24.90;63.30;;;;;;5092950;28;20040;-65
2022/08/26 09:01:51;;;;;;;7.72;1.67;;;24.90;63.60;;;;;;5093761;28;20076;-64
2022/08/26 09:04:40;;;;;;;6.50;1.80;;;24.80;63.80;;;;;;5097033;28;20028;-65
2022/08/26 09:07:12;;;;;;;5.93;1.35;;;24.80;63.90;;;;;;5096667;28;20032;-65
2022/08/26 09:09:43;;;;;;;5.30;1.60;;;24.80;64.00;;;;;;5097646;28;20035;-65
2022/08/26 09:12:15;;;;;;;8.27;2.00;;;24.80;64.00;;;;;;5094199;28;20130;-65
2022/08/26 09:14:43;;;;;;;5.28;1.50;;;24.80;64.00;;;;;;5070624;28;20032;-66
2022/08/26 09:17:32;;;;;;;6.75;1.50;;;24.90;64.00;;;;;;5068294;28;20445;-65
2022/08/26 09:20:07;;;;;;;6.32;1.38;;;24.90;63.90;;;;;;5081074;28;20087;-64
2022/08/26 09:22:35;;;;;;;6.00;1.52;;;24.90;63.90;;;;;;5074261;28;20046;-66
2022/08/26 09:25:04;;;;;;;6.30;1.90;;;24.90;63.90;;;;;;5089987;28;20031;-64
2022/08/26 09:27:42;;;;;;;5.38;1.63;;;24.80;64.00;;;;;;5083796;28;20055;-64
2022/08/26 09:30:11;;;;;;;4.53;1.30;;;24.80;64.10;;;;;;5095589;28;20034;-64
2022/08/26 09:32:37;;;;;;;5.43;1.48;;;24.80;64.20;;;;;;5078610;28;20032;-65
2022/08/26 09:35:11;;;;;;;7.00;1.42;;;24.80;64.20;;;;;;5077819;28;20039;-64
2022/08/26 09:37:46;;;;;;;2.78;1.30;;;24.80;64.20;;;;;;5094786;28;20085;-64
2022/08/26 09:40:21;;;;;;;6.65;1.70;;;24.80;64.30;;;;;;5077496;28;20036;-64
2022/08/26 09:43:07;;;;;;;4.93;1.15;;;24.80;64.20;;;;;;5095760;28;20016;-64
2022/08/26 09:45:33;;;;;;;5.18;1.40;;;24.90;64.20;;;;;;5095802;28;20047;-64
2022/08/26 09:47:59;;;;;;;6.28;1.35;;;24.80;64.20;;;;;;5076374;28;20040;-65
2022/08/26 09:50:33;;;;;;;7.72;1.83;;;24.80;64.30;;;;;;5087194;28;20063;-64
2022/08/26 09:53:18;;;;;;;5.45;1.40;;;24.80;64.50;;;;;;5069947;28;20032;-64
2022/08/26 09:55:47;;;;;;;4.85;1.42;;;24.70;64.50;;;;;;5073652;28;20059;-64
2022/08/26 09:58:29;;;;;;;5.10;1.40;;;24.70;64.60;;;;;;5094755;28;20024;-65
2022/08/26 10:01:00;;;;;;;6.28;1.50;;;24.70;64.70;;;;;;5085200;28;20024;-65
2022/08/26 10:03:28;;;;;;;4.93;1.50;;;24.70;64.60;;;;;;5090214;28;20092;-65
2022/08/26 10:06:06;;;;;;;5.63;1.73;;;24.70;64.40;;;;;;5069396;28;20039;-65
2022/08/26 10:08:34;;;;;;;5.05;1.52;;;24.80;64.20;;;;;;5068528;28;20025;-64
2022/08/26 10:11:09;;;;;;;5.80;1.77;;;24.90;64.00;;;;;;5082240;28;20060;-64
2022/08/26 10:13:51;;;;;;;5.35;1.70;;;24.90;63.70;;;;;;5079099;28;20052;-64
2022/08/26 10:16:21;;;;;;;5.70;1.40;;;24.90;63.30;;;;;;5081107;28;20028;-64
2022/08/26 10:19:08;;;;;;;7.05;1.77;;;24.90;63.20;;;;;;5077493;28;20024;-64
2022/08/26 10:22:04;;;;;;;5.93;1.85;;;24.90;63.10;;;;;;5066361;28;20386;-64
2022/08/26 10:24:47;;;;;;;7.03;1.40;;;24.90;63.10;;;;;;5086716;28;20311;-64
2022/08/26 10:27:25;;;;;;;7.40;1.85;;;24.90;63.10;;;;;;5071441;28;20040;-64
2022/08/26 10:30:00;;;;;;;4.10;1.17;;;25.00;63.00;;;;;;5049122;28;20063;-64
2022/08/26 10:32:37;;;;;;;5.30;1.60;;;25.00;63.00;;;;;;5088061;28;20437;-64
2022/08/26 10:35:05;;;;;;;4.85;1.48;;;25.00;62.90;;;;;;5067995;28;20114;-64
2022/08/26 10:37:45;;;;;;;3.80;1.30;;;25.10;62.80;;;;;;5093502;28;20036;-64
2022/08/26 10:40:48;;;;;;;5.60;1.63;;;25.10;62.60;;;;;;5091184;28;20036;-64
2022/08/26 10:43:20;;;;;;;5.15;1.30;;;25.20;62.40;;;;;;5077823;28;20101;-65
2022/08/26 10:45:52;;;;;;;4.40;1.20;;;25.20;62.20;;;;;;5079797;28;20033;-65
2022/08/26 10:48:48;;;;;;;6.65;1.55;;;25.30;61.90;;;;;;5094260;28;20115;-65
2022/08/26 10:51:18;;;;;;;6.22;1.48;;;25.40;61.60;;;;;;5095187;28;20088;-65
2022/08/26 10:53:50;;;;;;;5.45;1.50;;;25.40;61.40;;;;;;5077583;28;20136;-65
2022/08/26 10:56:31;;;;;;;5.20;1.67;;;25.40;61.30;;;;;;5076274;28;20032;-65
2022/08/26 10:59:42;;;;;;;5.72;1.35;;;25.40;60.90;;;;;;5094506;28;20016;-65
2022/08/26 11:02:23;;;;;;;6.72;1.55;;;25.40;60.80;;;;;;5047022;28;20054;-65
2022/08/26 11:04:54;;;;;;;6.30;1.30;;;25.30;60.70;;;;;;5093710;28;20036;-65
2022/08/26 11:07:45;;;;;;;4.20;1.30;;;25.30;60.70;;;;;;5076528;28;20086;-65
2022/08/26 11:10:19;;;;;;;6.57;1.30;;;25.20;60.50;;;;;;5077035;28;20100;-65
2022/08/26 11:12:50;;;;;;;6.38;1.50;;;25.20;60.80;;;;;;5094969;28;20043;-65
2022/08/26 11:15:20;;;;;;;5.57;1.35;;;25.10;61.60;;;;;;5094898;28;20108;-64
2022/08/26 11:17:45;;;;;;;4.85;1.20;;;25.00;62.80;;;;;;5094734;28;20031;-64
2022/08/26 11:20:36;;;;;;;4.30;1.63;;;24.90;63.90;;;;;;5090193;28;20321;-64
2022/08/26 11:23:43;;;;;;;4.47;1.50;;;24.80;65.10;;;;;;5077142;28;20036;-65
2022/08/26 11:26:09;;;;;;;5.75;1.52;;;24.70;65.60;;;;;;5035913;28;20135;-64
2022/08/26 11:28:47;;;;;;;6.68;1.20;;;24.60;65.80;;;;;;5092735;28;20060;-64
2022/08/26 11:31:25;;;;;;;4.60;1.27;;;24.60;66.50;;;;;;5092108;28;20417;-63
2022/08/26 11:33:58;;;;;;;4.88;1.30;;;24.50;66.70;;;;;;5064478;28;20077;-64
2022/08/26 11:36:52;;;;;;;7.05;1.30;;;24.50;66.80;;;;;;5074688;28;20460;-64
2022/08/26 11:39:28;;;;;;;7.28;1.80;;;24.50;67.80;;;;;;5082823;28;20429;-64
2022/08/26 11:42:12;;;;;;;4.95;1.30;;;24.50;67.20;;;;;;5086884;28;20444;-66
2022/08/26 11:44:42;;;;;;;3.42;1.13;;;24.50;67.00;;;;;;5089947;28;20044;-66
2022/08/26 11:47:09;;;;;;;6.18;1.52;;;24.40;67.00;;;;;;5092894;28;20024;-66
2022/08/26 11:49:36;;;;;;;5.55;1.48;;;24.40;67.10;;;;;;5069732;28;20356;-65
2022/08/26 11:52:16;;;;;;;4.13;1.40;;;24.50;67.20;;;;;;5090749;28;20032;-65
2022/08/26 11:55:03;;;;;;;3.45;1.13;;;24.50;67.50;;;;;;5078764;28;20024;-65
2022/08/26 11:57:32;;;;;;;4.25;1.73;;;24.50;67.40;;;;;;5062417;28;20028;-64
2022/08/26 11:59:58;;;;;;;4.35;1.60;;;24.50;67.50;;;;;;5062754;28;20437;-64
2022/08/26 12:02:25;;;;;;;5.63;1.50;;;24.50;67.00;;;;;;5060565;28;20051;-65
2022/08/26 12:04:53;;;;;;;4.90;1.20;;;24.50;67.00;;;;;;5091463;28;20551;-65
2022/08/26 12:07:23;;;;;;;5.72;1.60;;;24.50;66.70;;;;;;5095510;28;20027;-65
2022/08/26 12:09:53;;;;;;;4.50;1.45;;;24.50;66.80;;;;;;5068524;28;20036;-65
2022/08/26 12:12:31;;;;;;;3.58;1.10;;;24.50;66.80;;;;;;5091048;28;20055;-64
2022/08/26 12:15:16;;;;;;;3.88;1.48;;;24.50;66.90;;;;;;5059759;28;20032;-64
2022/08/26 12:17:44;;;;;;;3.50;1.02;;;24.50;66.50;;;;;;5094012;28;20024;-64
2022/08/26 12:20:44;;;;;;;4.25;1.02;;;24.60;66.50;;;;;;5068908;28;20105;-64
2022/08/26 12:23:23;;;;;;;7.53;1.58;;;24.60;66.50;;;;;;5065563;28;20404;-64
2022/08/26 12:25:51;;;;;;;5.70;1.52;;;24.50;66.70;;;;;;5089842;28;20039;-65
2022/08/26 12:28:18;;;;;;;4.75;1.52;;;24.60;66.80;;;;;;5077836;28;20110;-65
2022/08/26 12:31:02;;;;;;;5.32;1.33;;;24.60;66.60;;;;;;5091088;28;20055;-65
2022/08/26 12:33:28;;;;;;;5.40;1.25;;;24.50;66.30;;;;;;5063290;28;20115;-64
2022/08/26 12:35:54;;;;;;;4.28;1.10;;;24.60;66.30;;;;;;5078012;28;20028;-64
2022/08/26 12:38:21;;;;;;;2.47;1.10;;;24.60;66.20;;;;;;5078925;28;20355;-64
2022/08/26 12:40:49;;;;;;;4.85;1.13;;;24.60;66.30;;;;;;5078091;28;20309;-65
2022/08/26 12:43:38;;;;;;;4.47;1.45;;;24.60;66.50;;;;;;5066580;28;20088;-66
2022/08/26 12:46:04;;;;;;;1.83;0.90;;;24.50;66.50;;;;;;5093809;28;20066;-66
2022/08/26 12:48:37;;;;;;;4.50;1.05;;;24.50;66.50;;;;;;5086831;28;20036;-66
2022/08/26 12:51:07;;;;;;;13.57;1.48;;;24.60;66.20;;;;;;5085369;28;20173;-62
2022/08/26 12:53:40;;;;;;;3.47;0.93;;;24.60;66.20;;;;;;5092950;28;20043;-62
2022/08/26 12:56:37;;;;;;;3.83;1.00;;;24.70;66.10;;;;;;5094234;28;20104;-61
2022/08/26 12:59:23;;;;;;;2.65;1.00;;;24.80;66.00;;;;;;5097108;28;20501;-62
2022/08/26 13:01:50;;;;;;;8.30;1.50;;;24.90;65.70;;;;;;5097244;28;20152;-62
2022/08/26 13:04:34;;;;;;;4.03;1.00;;;24.90;65.40;;;;;;5097578;28;20098;-62
2022/08/26 13:07:23;;;;;;;4.10;1.10;;;24.90;65.30;;;;;;5097496;28;20032;-61
2022/08/26 13:09:51;;;;;;;4.68;1.23;;;24.90;65.40;;;;;;5083767;28;20042;-61